Date,TemperatureHighF,TemperatureAvgF,TemperatureLowF,DewpointHighF,DewpointAvgF,DewpointLowF,HumidityHigh,HumidityAvg,HumidityLow,PressureMaxIn,PressureMinIn,WindSpeedMaxMPH,WindSpeedAvgMPH,GustSpeedMaxMPH,PrecipitationSumIn
2013-1-1,26,16,4,24,7,-2,91,68,48,0.00,40.00,9,3,17,0.00
2013-1-2,16,2,-14,4,-6,-21,79,71,53,0.00,40.00,3,1,7,0.00
2013-1-3,11,-6,-19,0,-14,-27,76,66,47,0.00,40.00,3,1,6,0.00
2013-1-4,31,19,4,26,14,-4,92,80,68,0.00,40.00,3,2,10,0.00
2013-1-5,29,20,0,25,12,-5,91,72,50,0.00,40.00,5,3,23,0.00
2013-1-6,28,16,1,23,12,-4,91,81,70,0.00,40.00,2,1,5,0.00
2013-1-7,26,17,-3,24,10,-9,92,76,51,0.00,40.00,3,1,8,0.00
2013-1-8,39,12,-6,22,5,-12,88,74,47,0.00,40.00,3,2,7,0.00
2013-1-9,36,20,6,28,15,2,91,84,73,0.00,40.00,5,1,12,0.00
2013-1-10,39,34,24,33,25,18,92,69,55,0.00,40.00,9,4,22,0.17
2013-1-11,32,24,13,28,20,9,92,82,58,0.00,40.00,2,1,5,0.01
2013-1-12,42,34,30,37,33,28,100,96,83,0.00,40.00,2,1,4,0.31
2013-1-13,40,35,33,37,34,33,100,98,86,0.00,40.00,2,1,7,0.33
2013-1-14,45,37,33,42,32,20,100,82,56,0.00,40.00,4,2,13,0.22
2013-1-15,33,29,22,22,18,15,79,63,49,0.00,40.00,5,2,10,0.01
2013-1-16,29,26,23,25,21,17,91,84,77,0.00,40.00,2,1,4,0.00
2013-1-17,30,21,6,27,9,-17,94,65,27,0.00,40.00,7,2,18,0.00
2013-1-18,15,1,-14,-8,-13,-21,72,55,31,0.00,40.00,5,2,16,0.00
2013-1-19,26,15,-5,22,10,-12,90,81,70,0.00,40.00,2,1,5,0.00
2013-1-20,38,25,13,35,17,0,90,72,44,0.00,40.00,11,4,27,0.12
2013-1-21,19,9,-6,5,-3,-12,80,59,34,0.00,40.00,5,2,17,0.04
2013-1-22,16,8,-1,7,-2,-19,81,64,39,0.00,40.00,7,3,15,0.00
2013-1-23,0,-9,-22,-16,-24,-31,63,48,32,0.00,40.00,6,1,14,0.00
2013-1-24,8,-9,-26,-13,-23,-35,63,51,27,0.00,40.00,5,2,16,0.00
2013-1-25,12,3,-5,-5,-10,-15,65,55,38,0.00,40.00,3,2,10,0.00
2013-1-26,16,5,-6,-5,-8,-13,75,57,34,0.00,40.00,3,1,12,0.00
2013-1-27,20,3,-9,1,-9,-16,75,59,28,0.00,40.00,5,2,11,0.00
2013-1-28,14,2,-13,10,-5,-20,84,71,51,0.00,40.00,3,1,4,0.00
2013-1-29,30,17,-1,25,12,-6,91,81,67,0.00,40.00,2,1,6,0.00
2013-1-30,40,34,27,37,33,25,100,96,89,0.00,40.00,2,1,5,0.67
2013-1-31,43,32,23,43,22,3,100,68,41,0.00,40.00,11,8,26,1.40